Airfield :
LOGIN :

Register | Disclaimer

   EN    FR    IT 

 










Legend :    VFR   Marginal VFR   IFR   Intensive IFR   Very Intensive IFR
Visi :
Ceiling :
>= 8 km
>= 3000ft
5 to 8 km
1000 to 3000 ft
1500m to 5 km
500 to 1000 ft
800 to 1500m
200 to 500 ft
< 800m
< 200 ft
Symbols :   Thunderstorms  Fog  Heavy snow  Heavy precipitations  Wind > 20 kt
SIGMETs :     Misc.  Thunderstorms  Icing  Turbulence  Mountain Waves  Volcanic Ashes






- Airport Elevation : 1989 ft
- IATA code : KLV


LKKV - Karlovy Vary

CURRENT METAR :
  • 030645Z VRB01KT 0700 R29/0900 FG OVC001 11/10 Q1016 RMK REG QNH 1014

EXPIRED METARs :
  • 030630Z 25003KT 210V300 0400 R29/0450 FG OVC001 11/10 Q1016
  • 030600Z VRB02KT 0400 R29/0375N FG OVC001 10/10 Q1016
  • 030500Z VRB01KT 0400 R29/0500N FG OVC001 10/10 Q1016
  • 030400Z VRB02KT 0200 R29/0300N FG VV001 10/09 Q1016

TAF TAF LKKV
Valid from the 03 at 06:00 until the 04 at 12:00 UTC


030500Z 0306/0412 VRB02KT 1500 BR SCT002
TEMPO 0306/0307 0700 FG BKN001
BECMG 0307/0309 23006KT 9999 BKN027
TEMPO 0310/0321 7000 SHRA SCT025TCU
PROB40
TEMPO 0313/0320 16016KT 2500 TSRA BKN014CB
BECMG 0321/0323 3000 BR SCT003
TEMPO 0323/0406 1500 BR BKN003
PROB30
TEMPO 0323/0405 0700 FG OVC001
BECMG 0406/0408 9999 BKN025



MET'MAP, your aeronautical weather chart ! - Copyright ORBIFLY December 2007 - Disclaimer

ORBIFLY MET'MAP TEAM :

Programming & Development : Alexandra Zaïnal
Concept & original design : Baudouin d'Aumeries
Assistance for programming : Marc-Olivier Méhu
Technical & hardware support : Manuel Goepfert

Contact : metmap@orbifly.com




SOURCES & CREDITS :

   NOAA